createdAt,value
2022-09-23T00:00:41.645Z,1.50
2022-09-23T00:08:46.220Z,1.83
2022-09-23T00:12:49.420Z,1.85
2022-09-23T00:16:51.110Z,1.70
2022-09-23T00:20:52.961Z,1.90
2022-09-23T00:24:54.686Z,1.80
2022-09-23T00:28:56.259Z,2.03
2022-09-23T00:32:57.850Z,1.73
2022-09-23T00:36:59.418Z,1.90
2022-09-23T00:41:02.472Z,2.13
2022-09-23T00:45:04.450Z,1.70
2022-09-23T00:49:15.620Z,2.22
2022-09-23T00:53:21.233Z,2.30
2022-09-23T00:57:24.309Z,2.45
2022-09-23T01:05:27.953Z,1.98
2022-09-23T01:09:29.561Z,1.67
2022-09-23T01:13:40.206Z,1.98
2022-09-23T01:17:53.495Z,2.13
2022-09-23T01:22:09.672Z,2.20
2022-09-23T01:26:14.236Z,2.20
2022-09-23T01:30:53.464Z,1.55
2022-09-23T01:35:19.725Z,1.98
2022-09-23T01:39:38.646Z,2.17
2022-09-23T01:43:54.702Z,2.13
2022-09-23T01:48:04.877Z,2.17
2022-09-23T01:52:25.455Z,2.22
2022-09-23T01:56:39.251Z,2.22
2022-09-23T02:00:50.459Z,2.30
2022-09-23T02:04:57.020Z,2.38
2022-09-23T02:09:24.950Z,2.35
2022-09-23T02:13:34.502Z,2.15
2022-09-23T02:17:59.506Z,1.88
2022-09-23T02:22:08.014Z,1.80
2022-09-23T02:26:33.906Z,2.15
2022-09-23T02:30:46.783Z,1.90
2022-09-23T02:35:06.217Z,1.85
2022-09-23T02:39:13.052Z,2.15
2022-09-23T02:43:22.344Z,1.95
2022-09-23T02:47:29.117Z,1.98
2022-09-23T02:51:34.619Z,2.55
2022-09-23T02:55:36.445Z,2.63
2022-09-23T02:59:38.631Z,2.10
2022-09-23T03:03:49.662Z,2.13
2022-09-23T03:08:26.017Z,2.00
2022-09-23T03:13:04.740Z,2.35
2022-09-23T03:17:20.146Z,2.17
2022-09-23T03:21:42.525Z,2.53
2022-09-23T03:25:47.400Z,2.00
2022-09-23T03:29:51.644Z,2.20
2022-09-23T03:33:58.056Z,2.17
2022-09-23T03:38:12.285Z,2.83
2022-09-23T03:42:51.871Z,2.25
2022-09-23T03:46:53.406Z,1.88
2022-09-23T03:50:55.011Z,2.28
2022-09-23T03:54:56.620Z,2.10
2022-09-23T03:59:01.380Z,2.40
2022-09-23T04:03:02.982Z,1.90
2022-09-23T04:07:04.876Z,2.28
2022-09-23T04:11:06.600Z,2.40
2022-09-23T04:15:08.593Z,2.00
2022-09-23T04:19:11.913Z,2.13
2022-09-23T04:23:13.581Z,2.25
2022-09-23T04:27:15.143Z,2.47
2022-09-23T04:31:16.722Z,2.70
2022-09-23T04:35:18.372Z,2.55
2022-09-23T04:39:19.970Z,2.17
2022-09-23T04:43:23.492Z,2.35
2022-09-23T04:47:25.069Z,2.45
2022-09-23T04:51:26.957Z,2.22
2022-09-23T04:55:29.473Z,2.20
2022-09-23T04:59:31.056Z,2.15
2022-09-23T05:03:35.729Z,2.28
2022-09-23T05:07:37.342Z,2.33
2022-09-23T05:11:38.916Z,2.50
2022-09-23T05:15:40.586Z,2.83
2022-09-23T05:19:42.566Z,2.95
2022-09-23T05:23:55.374Z,3.40
2022-09-23T05:27:57.121Z,2.50
2022-09-23T05:31:58.841Z,2.65
2022-09-23T05:36:01.234Z,2.60
2022-09-23T05:40:03.188Z,2.20
2022-09-23T05:44:05.057Z,2.95
2022-09-23T05:48:06.700Z,2.58
2022-09-23T05:52:08.215Z,2.47
2022-09-23T05:56:09.826Z,3.08
2022-09-23T06:00:12.203Z,2.63
2022-09-23T06:04:14.406Z,2.92
2022-09-23T06:08:16.122Z,3.53
2022-09-23T06:12:17.714Z,3.50
2022-09-23T06:16:19.256Z,2.90
2022-09-23T06:20:20.857Z,2.67
2022-09-23T06:24:27.262Z,2.65
2022-09-23T06:28:33.888Z,2.95
2022-09-23T06:32:35.869Z,2.60
2022-09-23T06:36:43.342Z,3.30
2022-09-23T06:40:50.650Z,3.40
2022-09-23T06:44:52.353Z,2.60
2022-09-23T06:48:53.931Z,2.63
2022-09-23T06:52:56.373Z,3.22
2022-09-23T06:56:58.006Z,2.80
2022-09-23T07:01:08.073Z,3.13
2022-09-23T07:05:09.818Z,3.00
2022-09-23T07:09:11.458Z,2.83
2022-09-23T07:13:16.267Z,2.97
2022-09-23T07:17:18.012Z,2.60
2022-09-23T07:21:19.634Z,2.72
2022-09-23T07:25:23.195Z,3.92
2022-09-23T07:29:24.812Z,3.53
2022-09-23T07:33:33.418Z,4.60
2022-09-23T07:37:36.347Z,3.50
2022-09-23T07:41:38.127Z,3.40
2022-09-23T07:45:43.521Z,3.60
2022-09-23T07:49:45.196Z,3.72
2022-09-23T07:53:51.270Z,3.60
2022-09-23T07:57:52.945Z,3.40
2022-09-23T08:01:56.756Z,3.60
2022-09-23T08:06:10.182Z,4.50
2022-09-23T08:10:13.772Z,3.50
2022-09-23T08:14:17.893Z,4.05
2022-09-23T08:18:19.582Z,3.03
2022-09-23T08:22:21.108Z,2.70
2022-09-23T08:26:22.888Z,2.85
2022-09-23T08:30:24.562Z,3.40
2022-09-23T08:34:27.776Z,3.22
2022-09-23T08:38:29.851Z,3.33
2022-09-23T08:42:33.789Z,3.40
2022-09-23T08:46:41.548Z,3.70
2022-09-23T08:50:47.424Z,3.85
2022-09-23T08:54:53.165Z,4.10
2022-09-23T08:59:21.514Z,4.57
2022-09-23T09:03:26.286Z,4.78
2022-09-23T09:07:37.397Z,4.60
2022-09-23T09:11:48.697Z,4.88
2022-09-23T09:16:23.913Z,4.80
2022-09-23T09:20:59.196Z,4.15
2022-09-23T09:25:14.364Z,4.25
2022-09-23T09:29:35.431Z,4.65
2022-09-23T09:33:47.202Z,4.10
2022-09-23T09:37:48.793Z,4.57
2022-09-23T09:41:52.052Z,4.20
2022-09-23T09:46:02.738Z,4.38
2022-09-23T09:50:09.043Z,4.03
2022-09-23T09:54:24.854Z,4.00
2022-09-23T09:58:30.160Z,3.85
2022-09-23T10:02:35.814Z,4.13
2022-09-23T10:06:37.498Z,4.13
2022-09-23T10:10:41.066Z,4.40
2022-09-23T10:14:43.189Z,4.35
2022-09-23T10:18:47.862Z,5.03
2022-09-23T10:22:49.572Z,4.93
2022-09-23T10:27:07.761Z,4.75
2022-09-23T10:31:13.388Z,4.38
2022-09-23T10:35:17.688Z,4.18
2022-09-23T10:39:37.956Z,4.10
2022-09-23T10:44:11.509Z,3.83
2022-09-23T10:48:36.109Z,3.88
2022-09-23T10:53:02.123Z,3.67
2022-09-23T10:57:38.176Z,3.15
2022-09-23T11:01:51.485Z,3.33
2022-09-23T11:06:14.833Z,3.70
2022-09-23T11:10:45.357Z,3.85
2022-09-23T11:15:06.669Z,3.05
2022-09-23T11:19:33.804Z,3.40
2022-09-23T11:24:29.428Z,3.60
2022-09-23T11:28:58.843Z,3.05
2022-09-23T11:33:08.259Z,3.33
2022-09-23T11:37:14.494Z,3.50
2022-09-23T11:41:19.231Z,3.28
2022-09-23T11:45:32.367Z,3.80
2022-09-23T11:49:52.515Z,3.92
2022-09-23T11:54:00.501Z,3.97
2022-09-23T11:58:23.071Z,3.88
2022-09-23T12:02:39.938Z,3.60
2022-09-23T12:06:46.447Z,3.70
2022-09-23T12:11:19.409Z,3.53
2022-09-23T12:15:45.655Z,4.25
2022-09-23T12:19:59.453Z,3.42
2022-09-23T12:24:18.464Z,3.30
2022-09-23T12:28:27.145Z,3.30
2022-09-23T12:32:30.212Z,3.13
2022-09-23T12:36:36.039Z,3.20
2022-09-23T12:40:41.815Z,3.90
2022-09-23T12:44:47.234Z,3.30
2022-09-23T12:48:58.182Z,3.75
2022-09-23T12:53:35.046Z,2.90
2022-09-23T12:57:36.568Z,3.05
2022-09-23T13:01:39.317Z,3.30
2022-09-23T13:06:05.612Z,3.50
2022-09-23T13:10:25.365Z,3.47
2022-09-23T13:14:28.664Z,3.40
2022-09-23T13:19:20.205Z,3.53
2022-09-23T13:23:23.737Z,3.53
2022-09-23T13:27:32.733Z,2.80
2022-09-23T13:31:34.566Z,3.70
2022-09-23T13:35:39.121Z,3.90
2022-09-23T13:39:40.827Z,3.08
2022-09-23T13:43:47.904Z,3.33
2022-09-23T13:47:51.649Z,3.95
2022-09-23T13:51:54.373Z,3.97
2022-09-23T13:56:01.682Z,4.80
2022-09-23T14:00:11.752Z,4.03
2022-09-23T14:04:24.726Z,3.65
2022-09-23T14:08:28.091Z,4.00
2022-09-23T14:12:32.786Z,4.32
2022-09-23T14:16:39.596Z,3.65
2022-09-23T14:20:50.222Z,3.50
2022-09-23T14:24:54.148Z,2.80
2022-09-23T14:28:56.682Z,3.00
2022-09-23T14:32:59.238Z,3.10
2022-09-23T14:37:47.525Z,3.75
2022-09-23T14:41:49.494Z,3.80
2022-09-23T14:45:55.133Z,2.65
2022-09-23T14:50:15.612Z,3.38
2022-09-23T14:54:34.650Z,2.88
2022-09-23T14:58:50.958Z,3.35
2022-09-23T15:03:11.614Z,2.72
2022-09-23T15:07:19.020Z,2.65
2022-09-23T15:11:22.205Z,3.00
2022-09-23T15:15:28.178Z,2.90
2022-09-23T15:19:31.304Z,2.63
2022-09-23T15:23:41.737Z,3.47
2022-09-23T15:27:56.685Z,2.88
2022-09-23T15:31:58.999Z,2.83
2022-09-23T15:36:00.874Z,2.28
2022-09-23T15:40:02.760Z,2.97
2022-09-23T15:44:15.948Z,3.33
2022-09-23T15:48:31.625Z,2.72
2022-09-23T15:52:33.231Z,2.80
2022-09-23T15:56:34.857Z,2.75
2022-09-23T16:00:36.627Z,2.65
2022-09-23T16:04:38.323Z,3.50
2022-09-23T16:08:42.307Z,4.75
2022-09-23T16:12:43.965Z,3.13
2022-09-23T16:16:47.848Z,2.70
2022-09-23T16:20:50.300Z,3.53
2022-09-23T16:24:51.826Z,2.67
2022-09-23T16:28:55.564Z,2.80
2022-09-23T16:32:57.190Z,3.33
2022-09-23T16:36:59.093Z,2.70
2022-09-23T16:41:01.037Z,2.95
2022-09-23T16:45:02.785Z,2.70
2022-09-23T16:49:04.838Z,2.55
2022-09-23T16:53:06.672Z,3.00
2022-09-23T16:57:09.699Z,3.13
2022-09-23T17:01:36.523Z,3.05
2022-09-23T17:05:38.425Z,2.83
2022-09-23T17:09:39.985Z,3.00
2022-09-23T17:13:42.327Z,3.42
2022-09-23T17:17:43.915Z,3.00
2022-09-23T17:21:45.455Z,2.70
2022-09-23T17:25:50.124Z,2.58
2022-09-23T17:29:51.641Z,3.30
2022-09-23T17:33:53.474Z,3.28
2022-09-23T17:37:55.802Z,3.17
2022-09-23T17:41:58.685Z,3.22
2022-09-23T17:46:15.472Z,2.97
2022-09-23T17:50:17.557Z,2.80
2022-09-23T17:54:19.105Z,2.67
2022-09-23T17:58:24.381Z,3.17
2022-09-23T18:02:25.981Z,3.30
2022-09-23T18:06:31.768Z,3.08
2022-09-23T18:10:33.431Z,2.80
2022-09-23T18:14:35.008Z,3.15
2022-09-23T18:18:36.538Z,3.38
2022-09-23T18:22:38.108Z,2.85
2022-09-23T18:26:40.007Z,3.13
2022-09-23T18:30:52.498Z,3.00
2022-09-23T18:34:54.087Z,3.55
2022-09-23T18:38:55.740Z,3.63
2022-09-23T18:42:57.316Z,3.40
2022-09-23T18:46:59.008Z,3.20
2022-09-23T18:51:00.623Z,3.50
2022-09-23T18:55:02.237Z,3.75
2022-09-23T18:59:07.729Z,3.10
2022-09-23T19:03:09.300Z,3.10
2022-09-23T19:07:11.128Z,3.10
2022-09-23T19:11:14.469Z,3.10
2022-09-23T19:15:16.088Z,3.10
2022-09-23T19:19:17.828Z,3.17
2022-09-23T19:23:20.793Z,3.10
2022-09-23T19:27:23.282Z,2.80
2022-09-23T19:31:29.340Z,3.22
2022-09-23T19:35:33.320Z,3.42
2022-09-23T19:39:37.448Z,2.88
2022-09-23T19:43:38.989Z,2.60
2022-09-23T19:47:40.495Z,3.10
2022-09-23T19:51:44.123Z,2.90
2022-09-23T19:55:45.733Z,3.05
2022-09-23T19:59:47.516Z,2.70
2022-09-23T20:03:50.006Z,2.72
2022-09-23T20:07:52.682Z,2.90
2022-09-23T20:11:54.329Z,2.60
2022-09-23T20:15:55.985Z,2.80
2022-09-23T20:19:58.461Z,2.97
2022-09-23T20:24:00.374Z,2.72
2022-09-23T20:28:02.182Z,3.15
2022-09-23T20:32:04.407Z,2.90
2022-09-23T20:36:06.424Z,2.87
2022-09-23T20:40:10.366Z,2.85
2022-09-23T20:44:12.668Z,2.47
2022-09-23T20:48:14.596Z,2.90
2022-09-23T20:52:18.004Z,2.58
2022-09-23T20:56:22.204Z,3.40
2022-09-23T21:00:24.537Z,2.92
2022-09-23T21:04:27.193Z,2.80
2022-09-23T21:08:29.380Z,2.60
2022-09-23T21:12:31.744Z,2.77
2022-09-23T21:16:33.460Z,2.53
2022-09-23T21:20:35.090Z,2.60
2022-09-23T21:29:00.082Z,2.70
2022-09-23T21:33:02.116Z,2.55
2022-09-23T21:37:04.284Z,2.17
2022-09-23T21:41:08.207Z,2.47
2022-09-23T21:45:11.171Z,2.53
2022-09-23T21:49:13.249Z,2.50
2022-09-23T21:53:17.824Z,2.43
2022-09-23T21:57:19.370Z,2.35
2022-09-23T22:01:23.782Z,2.17
2022-09-23T22:05:25.388Z,2.65
2022-09-23T22:09:27.210Z,2.72
2022-09-23T22:13:28.712Z,2.50
2022-09-23T22:17:33.129Z,2.10
2022-09-23T22:21:38.137Z,2.20
2022-09-23T22:25:39.626Z,2.42
2022-09-23T22:29:59.917Z,2.45
2022-09-23T22:34:01.529Z,2.17
2022-09-23T22:38:03.050Z,2.63
2022-09-23T22:42:05.445Z,2.30
2022-09-23T22:46:07.180Z,2.42
2022-09-23T22:50:09.350Z,2.35
2022-09-23T22:54:11.881Z,2.30
2022-09-23T22:58:31.341Z,2.10
2022-09-23T23:02:34.119Z,2.40
2022-09-23T23:06:36.945Z,2.55
2022-09-23T23:10:38.653Z,2.20
2022-09-23T23:14:40.791Z,2.92
2022-09-23T23:18:43.307Z,2.70
2022-09-23T23:22:44.815Z,3.20
2022-09-23T23:26:46.878Z,2.42
2022-09-23T23:30:48.483Z,2.67
2022-09-23T23:34:50.011Z,3.00
2022-09-23T23:38:51.823Z,3.15
2022-09-23T23:42:53.342Z,3.00
2022-09-23T23:46:55.308Z,3.10
2022-09-23T23:50:58.576Z,2.88
2022-09-23T23:55:00.085Z,3.63
2022-09-23T23:59:02.722Z,3.28
